Startpagina
METAR-TAF:

METAR-TAF

Vliegvelden :

Southampton Airport

Southampton, Engeland

breedte: 50-54N, lengte: 001-24W, hoogte: 9 m

Actueel weer

Dit bericht is 6 uur en het 21 minuten geleden gemaakt, om 17:50 UTC
Wind 3 kt uit variabele richting
Temperatuur 23°C
Vochtigheid 57%
Druk 1024 hPa
Zicht 10 km of meer
geen wolken onder 1500 m en geen cumulonimbus

METAR: EGHI 121750Z VRB03KT CAVOK 23/14 Q1024

Tijdstip: 01:11 (00:11 UTC)

Verwachting

Dit bericht is 7 uur en het 16 minuten geleden gemaakt, om 16:55 UTC
Verwachting geldig van 12 om 18 UTC tot 12 om 22 UTC
Wind 6 kt uit het westnoordwesten
Zicht 10 km of meer
Weinig wolken op 4500 ft

TAF: EGHI 121655Z 1218/1222 30006KT 9999 FEW045

Waarnemingen en weersverwachtingen van meer dan 4000 vliegvelden (METAR en TAF).

De beschikbare stations zijn de gele en rode punten op de kaart.

Ga met uw muis naar het station om de naam te zien.

Klik dan om waarnemingen en weersverwachtingen te zien.

kaart wijzigen: klik op de groene knoppen met een zwart kruis om in te zoomen, op de groene knop met een streepje om uit te zoomen of op de groene pijlen voor aangrenzende kaarten.


METAR-TAF: